Latest Weather Observations for Moree

IDN60801

Issued at 2:32 pm EDT Saturday 29 February 2020 (issued every 10 minutes, with the page automatically refreshed every 10 minutes)

About weather observations | Map of weather stations | Latest weather observations for NSW | Other Formats
Station Details ID: 053115 Name: MOREE AERO Lat: -29.49 Lon: 149.85 Height: 213.0 m
Data from the previous 72 hours. | See also: Recent months at Moree
Date/Time
EDT
Temp
°C
App
Temp
°C
Dew
Point
°C
Rel
Hum
%
Delta-T
°C
Wind Press
QNH
hPa
Press
MSL
hPa
Rain since
9am
mm
Dir  Spd
km/h
Gust
km/h
Spd
kts
Gust
kts
29/02:30pm 31.5 28.6 12.3 31 11.4 NNW 19 26 10 14 1012.6 1011.3 0.0
29/02:00pm 31.4 31.1 17.3 43 9.0 N 15 28 8 15 1012.9 1011.6 0.0
29/01:30pm 30.6 28.9 15.8 40 9.3 NNE 19 26 10 14 1013.3 1012.0 0.0
29/01:00pm 29.5 28.4 16.3 45 8.3 NNE 17 26 9 14 1013.8 1012.6 0.0
29/12:30pm 29.8 28.7 17.3 47 8.0 NNE 19 28 10 15 1014.1 1012.9 0.0
29/12:00pm 29.4 28.4 17.6 49 7.5 N 19 28 10 15 1014.6 1013.3 0.0
29/11:30am 28.9 28.1 19.2 55 6.3 NNE 22 30 12 16 1014.8 1013.5 0.0
29/11:00am 27.6 26.0 17.5 54 6.4 NNE 22 33 12 18 1015.1 1013.8 0.0
29/10:30am 27.0 25.0 17.5 56 6.0 NNE 24 32 13 17 1015.0 1013.7 0.0
29/10:00am 26.1 23.4 17.5 59 5.4 NNE 28 35 15 19 1015.0 1013.7 0.0
29/09:30am 25.2 23.3 17.7 63 4.7 NE 24 32 13 17 1014.9 1013.6 0.0
29/09:00am 24.5 22.5 17.5 65 4.4 NE 24 30 13 16 1014.7 1013.4 0.0
29/08:30am 23.5 21.6 15.8 62 4.7 ENE 20 30 11 16 1014.2 1013.0 0.0
29/08:00am 22.0 20.1 15.8 68 3.8 ENE 20 26 11 14 1013.9 1012.7 0.0
29/07:30am 20.5 19.0 16.3 77 2.6 ENE 19 26 10 14 1013.7 1012.5 0.0
29/07:00am 18.5 16.9 15.9 85 1.6 ENE 19 26 10 14 1013.4 1012.2 0.0
29/06:30am 19.0 16.8 16.0 83 1.8 ENE 22 30 12 16 1013.0 1011.7 0.0
29/06:00am 18.8 17.2 15.9 83 1.7 ENE 19 28 10 15 1012.5 1011.2 0.0
29/05:30am 18.4 16.2 14.9 80 2.1 E 20 26 11 14 1012.2 1010.9 0.0
29/05:00am 17.9 15.6 14.2 79 2.1 E 19 28 10 15 1011.9 1010.6 0.0
29/04:30am 17.6 14.9 13.5 77 2.3 E 20 28 11 15 1011.8 1010.5 0.0
29/04:00am 17.0 14.4 12.1 73 2.7 E 17 20 9 11 1011.7 1010.4 0.0
29/03:30am 17.6 15.6 11.6 68 3.3 ESE 13 15 7 8 1011.6 1010.3 0.0
29/03:00am 16.9 14.3 12.0 73 2.7 E 17 17 9 9 1011.6 1010.3 0.0
29/02:30am 17.4 15.6 11.0 66 3.5 SE 11 15 6 8 1011.6 1010.3 0.0
29/02:00am 17.4 15.9 10.5 64 3.7 SSE 9 11 5 6 1011.7 1010.4 0.0
29/01:30am 17.9 16.6 9.8 59 4.3 SSW 7 9 4 5 1011.7 1010.4 0.0
29/01:00am 18.8 17.3 9.3 54 5.1 SSW 7 11 4 6 1011.7 1010.4 0.0
29/12:30am 18.8 16.9 9.0 53 5.2 SW 9 11 5 6 1011.7 1010.4 0.0
29/12:00am 19.6 17.3 8.9 50 5.7 SW 11 11 6 6 1011.7 1010.4 0.0
 
Date/Time
EDT
Temp
°C
App
Temp
°C
Dew
Point
°C
Rel
Hum
%
Delta-T
°C
Wind Press
QNH
hPa
Press
MSL
hPa
Rain since
9am
mm
Dir  Spd
km/h
Gust
km/h
Spd
kts
Gust
kts
28/11:30pm 20.4 18.8 8.7 47 6.2 W 7 9 4 5 1011.8 1010.5 0.0
28/11:00pm 20.6 18.2 8.6 46 6.4 W 11 13 6 7 1011.6 1010.3 0.0
28/10:30pm 21.1 18.3 8.4 44 6.7 W 13 13 7 7 1011.5 1010.2 0.0
28/10:00pm 21.5 18.4 7.3 40 7.4 WNW 13 13 7 7 1011.3 1010.0 0.0
28/09:30pm 22.6 19.3 6.4 35 8.3 W 13 13 7 7 1011.0 1009.7 0.0
28/09:00pm 23.0 19.7 6.3 34 8.6 W 13 13 7 7 1010.7 1009.4 0.0
28/08:30pm 24.2 20.4 6.0 31 9.4 WSW 15 17 8 9 1010.2 1008.9 0.0
28/08:00pm 25.2 21.7 5.4 28 10.2 SW 13 15 7 8 1009.8 1008.5 0.0
28/07:30pm 26.7 23.1 5.1 25 11.1 SSW 13 17 7 9 1009.3 1008.1 0.0
28/07:00pm 28.3 23.5 4.6 22 12.3 SSW 19 22 10 12 1008.9 1007.6 0.0
28/06:30pm 29.4 24.2 3.4 19 13.2 SSW 20 26 11 14 1008.7 1007.4 0.0
28/06:00pm 30.0 24.6 2.3 17 13.9 SSW 20 30 11 16 1008.5 1007.2 0.0
28/05:30pm 30.1 24.7 4.7 20 13.3 SW 22 33 12 18 1008.3 1007.0 0.0
28/05:00pm 30.3 24.5 2.5 17 14.1 SW 22 32 12 17 1008.3 1007.0 0.0
28/04:30pm 30.3 25.1 3.4 18 13.8 SW 20 32 11 17 1008.3 1007.0 0.0
28/04:00pm 30.1 24.4 4.7 20 13.3 SW 24 37 13 20 1008.5 1007.2 0.0
28/03:30pm 29.8 23.7 2.9 18 13.6 SW 24 35 13 19 1008.9 1007.6 0.0
28/03:00pm 29.5 23.9 5.6 22 12.7 WSW 24 35 13 19 1009.1 1007.8 0.0
28/02:30pm 29.4 24.7 6.1 23 12.4 SW 20 33 11 18 1009.6 1008.3 0.0
28/02:00pm 28.9 23.1 4.4 21 12.7 SSW 24 35 13 19 1009.9 1008.6 0.0
28/01:30pm 28.4 23.6 4.6 22 12.3 SW 19 30 10 16 1010.3 1009.0 0.0
28/01:00pm 28.1 22.8 3.0 20 12.6 SSW 20 30 11 16 1010.7 1009.4 0.0
28/12:30pm 27.6 21.3 4.0 22 12.0 SW 26 33 14 18 1011.0 1009.7 0.0
28/12:00pm 27.0 21.8 5.3 25 11.3 SSW 22 30 12 16 1011.3 1010.0 0.0
28/11:30am 26.4 20.7 4.8 25 11.1 SW 24 32 13 17 1011.5 1010.2 0.0
28/11:00am 26.5 21.6 4.9 25 11.1 SSW 20 30 11 16 1011.3 1010.0 0.0
28/10:30am 25.5 21.6 7.1 31 9.8 SSW 17 22 9 12 1011.3 1010.0 0.0
28/10:00am 24.3 20.8 7.4 34 9.0 SSW 15 19 8 10 1011.2 1009.9 0.0
28/09:30am 22.9 19.3 10.0 44 7.1 SSW 19 24 10 13 1011.0 1009.7 0.0
28/09:00am 21.0 17.8 11.1 53 5.5 SSW 19 24 10 13 1011.0 1009.7 0.2
28/08:30am 19.2 17.1 12.5 65 3.8 SW 15 19 8 10 1010.9 1009.6 0.2
28/08:00am 17.6 16.4 12.9 74 2.7 WSW 11 11 6 6 1010.7 1009.4 0.2
28/07:30am 17.0 15.5 11.9 72 2.8 W 11 13 6 7 1010.2 1008.9 0.2
28/07:00am 16.5 15.4 12.1 75 2.4 WSW 9 11 5 6 1009.9 1008.6 0.2
28/06:30am 15.4 16.2 12.7 84 1.5 CALM 0 7 0 4 1009.6 1008.3 0.2
28/06:00am 15.6 16.4 12.5 82 1.7 CALM 0 0 0 0 1009.0 1007.7 0.2
28/05:30am 16.4 17.2 12.6 78 2.1 CALM 0 0 0 0 1008.7 1007.4 0.2
28/05:00am 17.3 16.3 12.4 73 2.7 SSW 9 11 5 6 1008.5 1007.2 0.2
28/04:30am 17.8 17.3 12.7 72 2.9 S 7 9 4 5 1008.4 1007.1 0.2
28/04:00am 17.5 16.7 12.8 74 2.7 S 9 11 5 6 1008.4 1007.1 0.2
28/03:30am 17.9 16.3 12.8 72 2.9 SSW 13 15 7 8 1008.3 1007.0 0.2
28/03:00am 18.5 16.6 13.1 71 3.1 SW 15 17 8 9 1008.4 1007.1 0.2
28/02:30am 18.8 17.9 13.6 72 3.0 SSW 11 11 6 6 1008.5 1007.2 0.2
28/02:00am 19.1 18.3 13.9 72 3.0 SSW 11 13 6 7 1008.6 1007.3 0.2
28/01:30am 19.7 18.5 14.1 70 3.3 SSW 13 13 7 7 1008.7 1007.4 0.2
28/01:00am 20.6 19.5 14.3 67 3.7 SSW 13 15 7 8 1008.8 1007.5 0.2
28/12:30am 20.9 19.5 14.5 67 3.8 SSW 15 17 8 9 1008.8 1007.5 0.2
28/12:00am 20.9 19.6 14.8 68 3.6 S 15 19 8 10 1009.1 1007.8 0.2
 
Date/Time
EDT
Temp
°C
App
Temp
°C
Dew
Point
°C
Rel
Hum
%
Delta-T
°C
Wind Press
QNH
hPa
Press
MSL
hPa
Rain since
9am
mm
Dir  Spd
km/h
Gust
km/h
Spd
kts
Gust
kts
27/11:30pm 22.1 20.8 14.7 63 4.4 SSW 15 19 8 10 1009.2 1008.0 0.2
27/11:00pm 22.7 20.8 14.3 59 5.0 SW 17 19 9 10 1009.1 1007.8 0.2
27/10:30pm 23.1 21.6 15.2 61 4.8 SW 17 20 9 11 1008.8 1007.5 0.2
27/10:00pm 23.5 22.6 15.8 62 4.7 SW 15 17 8 9 1008.6 1007.3 0.2
27/09:30pm 24.8 24.8 16.2 58 5.3 WSW 11 13 6 7 1008.6 1007.3 0.2
27/09:00pm 25.3 25.9 19.4 70 3.8 W 15 17 8 9 1008.4 1007.1 0.2
27/08:30pm 25.9 27.1 19.8 69 4.0 W 13 15 7 8 1007.8 1006.5 0.2
27/08:00pm 26.4 27.9 19.8 67 4.3 SW 11 13 6 7 1007.3 1006.0 0.2
27/07:30pm 27.6 28.2 19.4 61 5.4 WSW 15 17 8 9 1007.0 1005.7 0.2
27/07:00pm 29.3 29.5 19.3 55 6.6 SW 17 26 9 14 1006.9 1005.6 0.2
27/06:30pm 29.7 30.2 20.0 56 6.4 SW 17 26 9 14 1006.6 1005.3 0.2
27/06:00pm 29.2 29.6 19.8 57 6.2 SW 17 24 9 13 1006.3 1005.0 0.2
27/05:30pm 29.0 29.3 19.6 57 6.2 SW 17 26 9 14 1006.1 1004.8 0.2
27/05:00pm 29.5 29.3 18.6 52 7.1 WSW 17 22 9 12 1006.0 1004.7 0.2
27/04:30pm 30.1 30.5 19.8 54 6.8 SW 17 26 9 14 1006.2 1004.9 0.2
27/04:00pm 29.7 29.9 19.4 54 6.8 SW 17 22 9 12 1006.5 1005.2 0.2
27/03:30pm 29.6 29.8 20.2 57 6.2 SW 19 30 10 16 1007.0 1005.7 0.2
27/03:00pm 28.7 30.2 22.7 70 4.1 SW 19 26 10 14 1007.5 1006.2 0.2
27/02:55pm 28.1 29.8 23.0 74 3.5 SW 19 26 10 14 1007.6 1006.3 0.2
27/02:30pm 23.1 24.5 21.0 88 1.4 WSW 15 20 8 11 1008.0 1006.7 0.2
27/02:12pm 24.1 24.7 19.4 75 3.0 WSW 15 22 8 12 1008.2 1006.9 0.2
27/02:00pm 29.1 29.7 19.4 55 6.4 SW 15 19 8 10 1008.4 1007.1 0.2
27/01:30pm 28.9 30.4 20.6 61 5.5 SW 13 20 7 11 1008.8 1007.5 0.2
27/01:00pm 28.0 28.8 19.0 58 5.9 SW 13 19 7 10 1009.1 1007.8 0.2
27/12:30pm 27.4 28.0 17.6 55 6.2 SW 11 19 6 10 1009.6 1008.3 0.2
27/12:00pm 27.5 29.3 19.6 62 5.2 SW 9 13 5 7 1009.8 1008.5 0.2
27/11:30am 26.5 27.5 18.6 62 5.1 WSW 11 13 6 7 1010.0 1008.7 0.2
27/11:00am 26.3 27.1 17.4 58 5.6 WNW 9 15 5 8 1010.2 1008.9 0.2
27/10:30am 25.5 26.8 17.2 60 5.2 W 6 7 3 4 1010.1 1008.8 0.2
27/10:00am 24.8 26.3 17.5 64 4.6 SE 6 7 3 4 1010.0 1008.7 0.0
27/09:30am 23.6 24.7 17.1 67 4.0 SE 7 11 4 6 1009.9 1008.6 0.0
27/09:00am 22.9 24.5 18.2 75 3.0 ESE 7 9 4 5 1010.0 1008.7 34.8
27/08:30am 21.4 22.9 18.0 81 2.1 SSE 7 7 4 4 1009.9 1008.6 34.8
27/08:00am 19.9 21.6 18.4 91 0.9 S 7 9 4 5 1009.8 1008.5 34.8
27/07:30am 19.2 20.6 17.7 91 0.9 SE 7 9 4 5 1009.6 1008.3 34.8
27/07:00am 18.8 20.1 17.5 92 0.8 SE 7 9 4 5 1009.3 1008.1 34.8
27/06:30am 18.8 20.1 17.5 92 0.8 ESE 7 11 4 6 1009.1 1007.8 34.8
27/06:00am 18.6 19.8 17.4 93 0.7 SSE 7 9 4 5 1008.8 1007.5 34.8
27/05:30am 18.7 19.6 17.5 93 0.7 SSW 9 9 5 5 1008.4 1007.1 34.8
27/05:00am 18.8 19.7 17.5 92 0.8 WSW 9 9 5 5 1008.5 1007.2 34.8
27/04:30am 18.9 19.8 17.6 92 0.8 WSW 9 13 5 7 1008.4 1007.1 34.8
27/04:00am 19.1 20.1 17.8 92 0.8 W 9 11 5 6 1008.3 1007.0 34.8
27/03:30am 19.5 20.9 17.8 90 1.1 SE 7 11 4 6 1008.4 1007.1 34.8
27/03:00am 19.5 20.2 18.0 91 0.9 E 11 11 6 6 1008.5 1007.2 34.8
27/02:30am 19.4 20.8 17.7 90 1.1 NNE 7 9 4 5 1008.8 1007.5 34.8
27/02:00am 19.6 18.7 17.7 89 1.2 NE 19 24 10 13 1008.9 1007.6 34.8
27/01:30am 19.5 18.6 18.2 92 0.8 ENE 20 28 11 15 1009.3 1008.1 34.8
27/01:00am 19.2 17.8 18.0 93 0.7 NE 22 30 12 16 1009.8 1008.5 34.6
27/12:30am 17.9 14.6 16.9 94 0.6 ENE 30 35 16 19 1009.3 1008.1 33.6
27/12:13am 17.9 14.0 16.9 94 0.6 ENE 33 44 18 24 1009.8 1008.5 32.8
27/12:00am 17.9 12.8 16.9 94 0.6 E 39 48 21 26 1010.2 1008.9 32.4
 
Date/Time
EDT
Temp
°C
App
Temp
°C
Dew
Point
°C
Rel
Hum
%
Delta-T
°C
Wind Press
QNH
hPa
Press
MSL
hPa
Rain since
9am
mm
Dir  Spd
km/h
Gust
km/h
Spd
kts
Gust
kts
26/11:49pm 18.2 13.3 17.2 94 0.6 ESE 39 50 21 27 1011.6 1010.3 30.0
26/11:39pm 18.1 11.4 17.1 94 0.6 SSE 48 61 26 33 1011.4 1010.1 23.2
26/11:30pm 17.7 10.1 16.6 93 0.7 S 52 78 28 42 1011.4 1010.1 19.0
26/11:24pm 18.4 12.4 16.9 91 0.9 S 44 65 24 35 1011.6 1010.3 10.8
26/11:18pm 20.0 16.2 18.1 89 1.2 S 35 57 19 31 1011.3 1010.0 3.2
26/11:15pm 20.6 17.5 18.4 87 1.4 S 32 50 17 27 1011.2 1009.9 1.0
26/11:14pm 20.8 17.8 18.7 88 1.3 SSW 32 50 17 27 1011.2 1009.9 0.8
26/11:01pm 21.8 16.6 17.4 76 2.7 SSW 41 63 22 34 1010.5 1009.2 0.0
26/11:00pm 22.0 16.8 17.4 75 2.9 SSW 41 63 22 34 1010.6 1009.3 0.0
26/10:55pm 23.1 19.6 16.6 67 4.0 SSW 30 59 16 32 1010.6 1009.3 0.0
26/10:49pm 25.0 25.0 18.2 66 4.3 E 15 37 8 20 1010.6 1009.3 0.0
26/10:30pm 25.1 27.0 19.7 72 3.5 NNE 9 13 5 7 1009.6 1008.3 0.0
26/10:00pm 25.0 26.4 19.6 72 3.5 ENE 11 11 6 6 1008.9 1007.6 0.0
26/09:30pm 25.1 26.7 19.2 70 3.8 NE 9 9 5 5 1008.5 1007.2 0.0
26/09:00pm 25.6 26.9 19.3 68 4.1 NNE 11 15 6 8 1008.1 1006.8 0.0
26/08:30pm 25.6 26.5 19.3 68 4.1 NNE 13 13 7 7 1007.5 1006.2 0.0
26/08:00pm 26.7 28.3 19.1 63 4.9 NE 9 13 5 7 1007.7 1006.4 0.0
26/07:30pm 27.4 28.5 18.9 59 5.5 NNE 11 15 6 8 1007.5 1006.2 0.0
26/07:00pm 28.5 30.1 19.2 57 6.1 NE 9 13 5 7 1007.3 1006.0 0.0
26/06:30pm 28.8 30.1 19.4 56 6.2 NE 11 15 6 8 1007.0 1005.7 0.0
26/06:00pm 29.0 30.6 19.9 58 6.0 NE 11 13 6 7 1006.8 1005.5 0.0
26/05:30pm 29.2 32.9 22.2 66 4.8 ESE 6 11 3 6 1006.9 1005.6 0.0
26/05:00pm 27.4 29.8 19.7 63 5.1 SSE 6 9 3 5 1007.3 1006.0 0.0
26/04:30pm 27.1 28.9 21.2 70 3.9 NNW 13 19 7 10 1007.6 1006.3 0.0
26/04:00pm 25.3 25.7 19.9 72 3.5 NW 17 24 9 13 1008.4 1007.1 0.0
26/03:30pm 24.3 23.6 21.0 82 2.2 WSW 26 35 14 19 1008.1 1006.8 0.0
26/03:24pm 24.5 24.4 20.0 76 2.9 W 20 35 11 19 1008.1 1006.8 0.0
26/03:00pm 27.5 29.9 20.1 64 4.9 NW 7 9 4 5 1008.6 1007.3 0.0

Other formats

Comma delimited format used in spreadsheet applications
http://www.bom.gov.au/fwo/IDN60801/IDN60801.95527.axf

JavaScript Object Notation format (JSON) in row-major order
http://www.bom.gov.au/fwo/IDN60801/IDN60801.95527.json

Data quality

Most of these data are generated automatically and are frequently updated. Quality checks on data are not normally performed. It is possible for incorrect values to appear. Refer to information at About Latest Weather Observations and please check the disclaimer before using these data.